Time;durP1;ratioP1;P1;durP2;ratioP2;P2;SDS_P1;SDS_P2;PMS_P1;PMS_P2;Temp;Humidity;BMP_temperature;BMP_pressure;BME280_temperature;BME280_humidity;BME280_pressure;Samples;Min_cycle;Max_cycle;Signal;HPM_P1;HPM_P2
2022/04/12 00:00:44;;;;;;;3.03;1.77;;;4.70;99.90;;;;;;5032788;28;20033;-76
2022/04/12 00:03:11;;;;;;;3.53;1.92;;;4.60;99.90;;;;;;5033034;28;20045;-76
2022/04/12 00:05:39;;;;;;;3.47;2.40;;;4.50;99.90;;;;;;5030640;28;20041;-81
2022/04/12 00:08:08;;;;;;;2.13;1.92;;;4.50;99.90;;;;;;5030255;28;20040;-76
2022/04/12 00:10:35;;;;;;;2.10;1.67;;;4.40;99.90;;;;;;5021985;28;20038;-77
2022/04/12 00:13:03;;;;;;;2.30;2.10;;;4.40;99.90;;;;;;5023595;28;20036;-76
2022/04/12 00:15:33;;;;;;;2.33;1.90;;;4.20;99.90;;;;;;5001286;28;20470;-76
2022/04/12 00:20:45;;;;;;;3.78;2.10;;;4.30;99.90;;;;;;5033056;28;20045;-76
2022/04/12 00:23:14;;;;;;;2.28;2.00;;;4.40;99.90;;;;;;5038171;28;20029;-76
2022/04/12 00:25:44;;;;;;;3.78;2.47;;;4.30;99.90;;;;;;5042556;28;20044;-76
2022/04/12 00:28:12;;;;;;;1.85;1.70;;;4.30;99.90;;;;;;5042120;28;20451;-77
2022/04/12 00:30:40;;;;;;;4.13;2.78;;;4.40;99.90;;;;;;5042266;28;20128;-77
2022/04/12 00:33:06;;;;;;;6.00;3.03;;;4.40;99.90;;;;;;5034271;28;20052;-77
2022/04/12 00:35:33;;;;;;;2.72;2.03;;;4.40;99.90;;;;;;5036301;28;20088;-77
2022/04/12 00:37:59;;;;;;;2.42;2.22;;;4.40;99.90;;;;;;5035112;28;20049;-76
2022/04/12 00:40:25;;;;;;;3.50;3.20;;;4.40;99.90;;;;;;5030166;28;20037;-76
2022/04/12 00:42:53;;;;;;;2.35;2.15;;;4.30;99.90;;;;;;5036880;28;20494;-76
2022/04/12 00:45:20;;;;;;;2.38;2.17;;;4.40;99.90;;;;;;5036044;28;20025;-76
2022/04/12 00:47:47;;;;;;;3.17;2.45;;;4.40;99.90;;;;;;5035773;28;20040;-77
2022/04/12 00:50:13;;;;;;;3.95;2.70;;;4.40;99.90;;;;;;5019200;28;20046;-76
2022/04/12 00:52:48;;;;;;;2.10;1.90;;;4.50;99.90;;;;;;5037062;28;20044;-76
2022/04/12 00:55:14;;;;;;;3.55;2.30;;;4.50;99.90;;;;;;5017734;28;20033;-77
2022/04/12 00:57:41;;;;;;;2.33;2.13;;;4.50;99.90;;;;;;5036003;28;20037;-77
2022/04/12 01:00:09;;;;;;;4.47;2.00;;;4.50;99.90;;;;;;5035848;28;20044;-78
2022/04/12 01:02:36;;;;;;;3.55;2.75;;;4.40;99.90;;;;;;5042415;28;20057;-77
2022/04/12 01:05:04;;;;;;;2.55;2.35;;;4.30;99.90;;;;;;5039555;28;20368;-77
2022/04/12 01:07:31;;;;;;;2.78;2.58;;;4.30;99.90;;;;;;5036279;28;20406;-77
2022/04/12 01:09:58;;;;;;;2.53;2.33;;;4.30;99.90;;;;;;5036248;28;20041;-82
2022/04/12 01:12:27;;;;;;;3.90;2.72;;;4.40;99.90;;;;;;5033151;28;20034;-76
2022/04/12 01:14:53;;;;;;;2.38;2.17;;;4.30;99.90;;;;;;5036045;28;20041;-77
2022/04/12 01:17:19;;;;;;;5.10;2.35;;;4.30;99.90;;;;;;5030742;28;20033;-77
2022/04/12 01:19:45;;;;;;;12.52;2.85;;;4.40;99.90;;;;;;5031789;28;20034;-76
2022/04/12 01:22:22;;;;;;;4.88;3.20;;;4.30;99.90;;;;;;5036208;28;20041;-78
2022/04/12 01:24:49;;;;;;;3.50;2.75;;;4.30;99.90;;;;;;5034897;28;20044;-78
2022/04/12 01:27:15;;;;;;;5.00;3.40;;;4.40;99.90;;;;;;5024998;28;20494;-78
2022/04/12 01:29:41;;;;;;;3.38;3.08;;;4.30;99.90;;;;;;5011909;28;20046;-76
2022/04/12 01:32:08;;;;;;;3.35;3.05;;;4.30;99.90;;;;;;5013394;28;20049;-77
2022/04/12 01:34:35;;;;;;;5.50;3.17;;;4.20;99.90;;;;;;5008713;28;20037;-76
2022/04/12 01:37:07;;;;;;;3.28;2.78;;;4.20;99.90;;;;;;5014250;28;20053;-76
2022/04/12 01:39:33;;;;;;;7.97;3.63;;;4.20;99.90;;;;;;5011279;28;20030;-76
2022/04/12 01:42:00;;;;;;;3.92;3.30;;;4.20;99.90;;;;;;5008158;28;20490;-77
2022/04/12 01:44:27;;;;;;;2.90;2.60;;;4.20;99.90;;;;;;5015632;28;20038;-77
2022/04/12 01:46:53;;;;;;;3.03;2.78;;;4.10;99.90;;;;;;5014632;28;20026;-78
2022/04/12 01:49:19;;;;;;;4.57;2.58;;;4.10;99.90;;;;;;5014563;28;20037;-77
2022/04/12 01:51:45;;;;;;;3.17;2.88;;;4.00;99.90;;;;;;5015570;28;20057;-77
2022/04/12 01:54:12;;;;;;;9.25;3.00;;;3.90;99.90;;;;;;5016754;28;20030;-82
2022/04/12 01:56:38;;;;;;;3.55;3.25;;;3.90;99.90;;;;;;5018533;28;20026;-78
2022/04/12 01:59:04;;;;;;;4.70;3.95;;;3.90;99.90;;;;;;5018623;28;20052;-77
2022/04/12 02:01:30;;;;;;;4.85;3.88;;;3.90;99.90;;;;;;5015912;28;20494;-77
2022/04/12 02:03:56;;;;;;;3.42;3.13;;;4.00;99.90;;;;;;5010173;28;20034;-82
2022/04/12 02:06:23;;;;;;;5.78;4.25;;;4.00;99.90;;;;;;5002353;28;20038;-77
2022/04/12 02:08:49;;;;;;;5.13;3.85;;;3.90;99.90;;;;;;5008860;28;20030;-79
2022/04/12 02:11:16;;;;;;;4.38;3.55;;;3.90;99.90;;;;;;5009786;28;20607;-77
2022/04/12 02:13:42;;;;;;;4.60;4.00;;;3.80;99.90;;;;;;5009360;28;20041;-76
2022/04/12 02:16:08;;;;;;;4.07;3.67;;;3.80;99.90;;;;;;5006751;28;20034;-77
2022/04/12 02:18:34;;;;;;;6.75;4.60;;;3.80;99.90;;;;;;5013646;28;20045;-76
2022/04/12 02:21:00;;;;;;;5.97;3.55;;;3.80;99.90;;;;;;5014610;28;20041;-77
2022/04/12 02:23:26;;;;;;;6.45;3.92;;;3.80;99.90;;;;;;5014578;28;20048;-76
2022/04/12 02:25:53;;;;;;;5.28;4.30;;;3.80;99.90;;;;;;5008935;28;20045;-77
2022/04/12 02:28:19;;;;;;;4.30;3.67;;;3.80;99.90;;;;;;5028600;28;20045;-76
2022/04/12 02:30:45;;;;;;;6.35;4.65;;;3.90;99.90;;;;;;5029559;28;20250;-78
2022/04/12 02:33:11;;;;;;;3.65;3.35;;;3.80;99.90;;;;;;5034112;28;20029;-76
2022/04/12 02:35:37;;;;;;;5.60;3.67;;;3.80;99.90;;;;;;5033695;28;20378;-81
2022/04/12 02:38:04;;;;;;;4.85;4.00;;;3.80;99.90;;;;;;5015023;28;20049;-77
2022/04/12 02:40:30;;;;;;;4.93;3.53;;;3.80;99.90;;;;;;5034216;28;20029;-76
2022/04/12 02:42:57;;;;;;;4.82;4.32;;;3.70;99.90;;;;;;5011514;28;20049;-82
2022/04/12 02:45:23;;;;;;;3.15;2.95;;;3.80;99.90;;;;;;5029479;28;20029;-76
2022/04/12 02:47:50;;;;;;;5.75;3.97;;;3.80;99.90;;;;;;4998887;28;20041;-76
2022/04/12 02:50:16;;;;;;;5.60;4.45;;;3.80;99.90;;;;;;5028875;28;20038;-77
2022/04/12 02:52:42;;;;;;;7.13;3.75;;;3.70;99.90;;;;;;5033374;28;20036;-76
2022/04/12 02:55:08;;;;;;;4.50;4.10;;;3.70;99.90;;;;;;5033583;28;20038;-76
2022/04/12 02:57:34;;;;;;;3.88;3.22;;;3.70;99.90;;;;;;5032510;28;20565;-76
2022/04/12 03:00:00;;;;;;;4.32;3.28;;;3.80;99.90;;;;;;5033043;28;20038;-77
2022/04/12 03:02:27;;;;;;;4.28;3.78;;;3.70;99.90;;;;;;5021237;28;20394;-76
2022/04/12 03:04:53;;;;;;;3.72;3.42;;;3.70;99.90;;;;;;5029341;28;20036;-76
2022/04/12 03:07:19;;;;;;;4.28;3.75;;;3.70;99.90;;;;;;5014553;28;20064;-76
2022/04/12 03:09:45;;;;;;;5.65;4.03;;;3.70;99.90;;;;;;5025470;28;20033;-76
2022/04/12 03:12:11;;;;;;;5.38;3.78;;;3.70;99.90;;;;;;5032964;28;20382;-80
2022/04/12 03:14:38;;;;;;;3.17;2.88;;;3.70;99.90;;;;;;5032814;28;20055;-76
2022/04/12 03:17:04;;;;;;;9.35;4.97;;;3.60;99.90;;;;;;5031838;28;20038;-77
2022/04/12 03:19:31;;;;;;;7.78;3.97;;;3.50;99.90;;;;;;5033654;28;20044;-78
2022/04/12 03:21:57;;;;;;;8.45;3.97;;;3.50;99.90;;;;;;5033865;28;20029;-83
2022/04/12 03:24:23;;;;;;;5.72;5.22;;;3.50;99.90;;;;;;5008453;28;20074;-76
2022/04/12 03:26:50;;;;;;;4.75;4.32;;;3.40;99.90;;;;;;5027186;28;20367;-77
2022/04/12 03:29:17;;;;;;;4.38;3.97;;;3.40;99.90;;;;;;5032241;28;20634;-77
2022/04/12 03:31:43;;;;;;;5.75;4.30;;;3.30;99.90;;;;;;5033901;28;20038;-77
2022/04/12 03:34:10;;;;;;;11.27;4.22;;;3.40;99.90;;;;;;5029088;28;20379;-77
2022/04/12 03:36:36;;;;;;;4.85;4.45;;;3.30;99.90;;;;;;5012035;28;20041;-77
2022/04/12 03:39:04;;;;;;;6.15;4.53;;;3.30;99.90;;;;;;5038759;28;20041;-77
2022/04/12 03:41:31;;;;;;;5.82;5.05;;;3.30;99.90;;;;;;5032329;28;20390;-77
2022/04/12 03:43:57;;;;;;;4.97;4.47;;;3.20;99.90;;;;;;5039234;28;20041;-81
2022/04/12 03:46:23;;;;;;;4.97;4.32;;;3.20;99.90;;;;;;5029672;28;20044;-76
2022/04/12 03:48:49;;;;;;;12.32;4.45;;;3.20;99.90;;;;;;5022868;28;20037;-77
2022/04/12 03:51:15;;;;;;;5.32;4.47;;;3.10;99.90;;;;;;5025719;28;20060;-77
2022/04/12 03:53:42;;;;;;;7.85;4.60;;;3.10;99.90;;;;;;5040472;28;20038;-76
2022/04/12 03:56:09;;;;;;;6.13;4.65;;;3.10;99.90;;;;;;5035151;28;20044;-77
2022/04/12 03:58:38;;;;;;;9.73;5.07;;;3.10;99.90;;;;;;5031991;28;20446;-77
2022/04/12 04:01:05;;;;;;;5.93;5.32;;;3.10;99.90;;;;;;5032361;28;20052;-77
2022/04/12 04:03:32;;;;;;;5.38;4.97;;;3.00;99.90;;;;;;5014227;28;20041;-77
2022/04/12 04:05:58;;;;;;;5.63;5.13;;;3.00;99.90;;;;;;5030116;28;20034;-82
2022/04/12 04:08:24;;;;;;;5.68;5.13;;;3.10;99.90;;;;;;5027710;28;20048;-77
2022/04/12 04:10:51;;;;;;;5.85;5.30;;;3.10;99.90;;;;;;5021015;28;20049;-77
2022/04/12 04:13:17;;;;;;;6.30;5.70;;;3.00;99.90;;;;;;5029546;28;20033;-77
2022/04/12 04:15:45;;;;;;;11.35;4.75;;;3.00;99.90;;;;;;5027814;28;20052;-77
2022/04/12 04:18:13;;;;;;;5.15;4.75;;;3.00;99.90;;;;;;5025110;28;20034;-77
2022/04/12 04:20:39;;;;;;;6.70;5.93;;;3.10;99.90;;;;;;5012500;28;20053;-77
2022/04/12 04:23:06;;;;;;;8.48;5.72;;;3.00;99.90;;;;;;5031499;28;20033;-79
2022/04/12 04:25:32;;;;;;;4.85;4.45;;;3.10;99.90;;;;;;5031917;28;20044;-77
2022/04/12 04:27:58;;;;;;;6.05;5.60;;;3.10;99.90;;;;;;5030499;28;20054;-81
2022/04/12 04:30:24;;;;;;;7.28;6.28;;;3.10;99.90;;;;;;5036057;28;20033;-77
2022/04/12 04:32:50;;;;;;;8.52;6.22;;;3.10;99.90;;;;;;5031887;28;20038;-77
2022/04/12 04:35:17;;;;;;;6.60;5.82;;;3.00;99.90;;;;;;5032256;28;20044;-78
2022/04/12 04:37:47;;;;;;;10.02;7.05;;;3.00;99.90;;;;;;5048486;28;20044;-80
2022/04/12 04:40:15;;;;;;;7.40;6.80;;;3.10;99.90;;;;;;5024496;28;20049;-78
2022/04/12 04:42:44;;;;;;;6.72;6.13;;;3.00;99.90;;;;;;5026975;28;20056;-78
2022/04/12 04:45:12;;;;;;;10.40;7.38;;;3.00;99.90;;;;;;5031638;28;20041;-78
2022/04/12 04:47:48;;;;;;;6.15;5.65;;;3.10;99.90;;;;;;5031303;28;20034;-77
2022/04/12 04:50:15;;;;;;;7.25;5.60;;;3.00;99.90;;;;;;5025964;28;20041;-78
2022/04/12 04:52:41;;;;;;;6.70;6.10;;;3.00;99.90;;;;;;5030308;28;20038;-77
2022/04/12 04:55:07;;;;;;;6.97;6.30;;;3.10;99.90;;;;;;5032256;28;20032;-77
2022/04/12 04:57:38;;;;;;;6.97;6.38;;;3.10;99.90;;;;;;5029548;28;20025;-79
2022/04/12 05:00:06;;;;;;;14.40;10.95;;;3.20;99.90;;;;;;5033166;28;20463;-78
2022/04/12 05:02:34;;;;;;;19.42;14.27;;;3.20;99.90;;;;;;5032091;28;20383;-77
2022/04/12 05:05:01;;;;;;;13.82;11.48;;;3.30;99.90;;;;;;5031851;28;20033;-80
2022/04/12 05:07:28;;;;;;;12.60;8.73;;;3.30;99.90;;;;;;5032688;28;20053;-76
2022/04/12 05:09:54;;;;;;;16.02;9.23;;;3.40;99.90;;;;;;5035668;28;20041;-78
2022/04/12 05:12:20;;;;;;;8.40;7.30;;;3.50;99.90;;;;;;5034935;28;20029;-77
2022/04/12 05:14:46;;;;;;;7.57;6.88;;;3.60;99.90;;;;;;5043559;28;20025;-77
2022/04/12 05:17:12;;;;;;;7.15;6.45;;;3.60;99.90;;;;;;5044705;28;20037;-77
2022/04/12 05:19:39;;;;;;;7.28;6.65;;;3.70;99.90;;;;;;5011401;28;20526;-77
2022/04/12 05:22:05;;;;;;;7.40;6.65;;;3.80;99.90;;;;;;5035152;28;20040;-76
2022/04/12 05:24:31;;;;;;;7.22;6.53;;;3.90;99.90;;;;;;5051690;28;20029;-77
2022/04/12 05:26:57;;;;;;;7.13;6.43;;;4.00;99.90;;;;;;5017588;28;20037;-78
2022/04/12 05:29:24;;;;;;;10.00;6.65;;;4.20;99.90;;;;;;5035014;28;20045;-77
2022/04/12 05:31:50;;;;;;;7.78;7.07;;;4.30;99.90;;;;;;5031200;28;20033;-77
2022/04/12 05:34:16;;;;;;;8.10;5.70;;;4.60;99.90;;;;;;5013754;28;20037;-78
2022/04/12 05:36:42;;;;;;;6.93;5.15;;;4.80;99.90;;;;;;5020441;28;20033;-79
2022/04/12 05:39:08;;;;;;;5.57;5.07;;;5.00;99.90;;;;;;5040708;28;20041;-78
2022/04/12 05:41:34;;;;;;;7.63;5.80;;;5.50;99.90;;;;;;5038239;28;20041;-79
2022/04/12 05:44:01;;;;;;;5.53;5.03;;;5.70;99.90;;;;;;5035491;28;20044;-80
2022/04/12 05:46:27;;;;;;;5.10;4.70;;;6.00;99.90;;;;;;5034576;28;20033;-79
2022/04/12 05:48:53;;;;;;;6.90;5.50;;;6.50;99.90;;;;;;5039564;28;20076;-77
2022/04/12 05:51:19;;;;;;;6.68;5.50;;;6.80;99.90;;;;;;5017208;28;20037;-79
2022/04/12 05:53:45;;;;;;;5.95;4.60;;;7.50;99.90;;;;;;5016580;28;20471;-77
2022/04/12 05:56:11;;;;;;;5.43;4.93;;;8.60;99.90;;;;;;5036840;28;20039;-77
2022/04/12 05:58:40;;;;;;;7.55;4.95;;;8.80;99.90;;;;;;5028586;28;20398;-78
2022/04/12 06:01:06;;;;;;;4.43;3.80;;;9.40;99.90;;;;;;5032656;28;20525;-77
2022/04/12 06:03:33;;;;;;;4.45;3.72;;;10.00;97.00;;;;;;5034003;28;20036;-77
2022/04/12 06:05:59;;;;;;;4.68;3.85;;;10.30;95.40;;;;;;5034189;28;20032;-80
2022/04/12 06:08:25;;;;;;;5.78;4.45;;;10.80;94.60;;;;;;5033196;28;20505;-77
2022/04/12 06:10:52;;;;;;;4.63;3.58;;;10.70;93.60;;;;;;5028463;28;20041;-77
2022/04/12 06:13:18;;;;;;;4.70;4.00;;;10.50;93.90;;;;;;5032045;28;20029;-77
2022/04/12 06:15:44;;;;;;;9.07;3.78;;;11.00;92.70;;;;;;5034084;28;20029;-77
2022/04/12 06:18:11;;;;;;;4.35;3.85;;;11.30;91.80;;;;;;5034440;28;20026;-77
2022/04/12 06:20:37;;;;;;;7.05;3.45;;;11.20;91.20;;;;;;5027062;28;20474;-79
2022/04/12 06:23:04;;;;;;;4.57;3.83;;;11.10;91.80;;;;;;5032553;28;20036;-79
2022/04/12 06:25:30;;;;;;;4.82;3.47;;;11.80;89.70;;;;;;5028827;28;20033;-80
2022/04/12 06:27:56;;;;;;;4.72;3.15;;;11.60;89.80;;;;;;5033729;28;20045;-80
2022/04/12 06:30:25;;;;;;;3.53;3.20;;;11.90;88.70;;;;;;5028277;28;20048;-78
2022/04/12 06:32:52;;;;;;;6.88;3.58;;;11.90;88.20;;;;;;5020770;28;20025;-78
2022/04/12 06:35:19;;;;;;;3.78;3.38;;;12.10;85.90;;;;;;5033928;28;20486;-78
2022/04/12 06:37:48;;;;;;;7.05;3.83;;;12.60;83.70;;;;;;5029824;28;20026;-78
2022/04/12 06:40:16;;;;;;;4.07;3.33;;;12.00;84.50;;;;;;5030400;28;20033;-78
2022/04/12 06:42:42;;;;;;;5.10;3.15;;;11.50;86.60;;;;;;5032665;28;20387;-78
2022/04/12 06:45:11;;;;;;;4.85;3.55;;;11.80;87.40;;;;;;5027600;28;20029;-79
2022/04/12 06:47:38;;;;;;;4.38;3.58;;;11.90;84.30;;;;;;5026300;28;20037;-78
2022/04/12 06:50:05;;;;;;;4.55;3.53;;;11.90;84.60;;;;;;5034388;28;20045;-78
2022/04/12 06:52:32;;;;;;;7.00;3.65;;;11.70;85.00;;;;;;5034051;28;20044;-78
2022/04/12 06:54:59;;;;;;;5.00;3.45;;;12.30;83.00;;;;;;5029847;28;20048;-77
2022/04/12 06:57:25;;;;;;;4.30;3.40;;;12.30;82.60;;;;;;5031525;28;20029;-77
2022/04/12 06:59:51;;;;;;;5.72;4.13;;;12.90;81.00;;;;;;5031197;28;20406;-77
2022/04/12 07:02:17;;;;;;;6.65;4.57;;;12.90;82.60;;;;;;5028342;28;20025;-77
2022/04/12 07:04:44;;;;;;;5.35;3.53;;;13.30;79.90;;;;;;5029739;28;20033;-78
2022/04/12 07:07:10;;;;;;;4.75;4.00;;;13.30;78.10;;;;;;5029708;28;20037;-78
2022/04/12 07:09:36;;;;;;;4.55;4.03;;;13.10;77.60;;;;;;5033046;28;20041;-77
2022/04/12 07:12:03;;;;;;;6.35;4.45;;;13.30;75.90;;;;;;5035155;28;20402;-79
2022/04/12 07:14:31;;;;;;;5.47;4.22;;;13.10;75.40;;;;;;5033119;28;20033;-78
2022/04/12 07:16:57;;;;;;;5.60;4.57;;;13.30;74.80;;;;;;5025499;28;20041;-78
2022/04/12 07:19:24;;;;;;;4.38;3.95;;;13.10;75.40;;;;;;5028052;28;20078;-78
2022/04/12 07:21:50;;;;;;;7.88;3.95;;;13.20;75.40;;;;;;5029817;28;20041;-77
2022/04/12 07:24:16;;;;;;;8.05;4.88;;;13.60;73.00;;;;;;5026978;28;20044;-77
2022/04/12 07:26:42;;;;;;;4.88;4.28;;;13.10;74.00;;;;;;5031387;28;20029;-78
2022/04/12 07:29:09;;;;;;;7.15;4.28;;;13.30;74.40;;;;;;5032394;28;20045;-78
2022/04/12 07:31:35;;;;;;;7.88;4.55;;;13.10;77.10;;;;;;5019342;28;20049;-78
2022/04/12 07:34:02;;;;;;;9.57;5.70;;;13.90;75.30;;;;;;5033117;28;20029;-77
2022/04/12 07:36:28;;;;;;;9.02;5.18;;;14.00;73.00;;;;;;5025853;28;20032;-77
2022/04/12 07:38:54;;;;;;;12.07;5.00;;;13.70;75.50;;;;;;5032346;28;20056;-77
2022/04/12 07:41:20;;;;;;;6.18;4.38;;;14.10;71.40;;;;;;5032955;28;20048;-77
2022/04/12 07:43:47;;;;;;;6.32;4.43;;;13.80;72.40;;;;;;5026995;28;20497;-83
2022/04/12 07:46:14;;;;;;;7.25;4.38;;;13.60;71.90;;;;;;5031115;28;20379;-81
2022/04/12 07:48:41;;;;;;;5.68;4.65;;;14.10;70.00;;;;;;5031995;28;20489;-78
2022/04/12 07:51:07;;;;;;;6.53;4.80;;;14.00;69.60;;;;;;5038140;28;20060;-78
2022/04/12 07:53:33;;;;;;;5.40;4.47;;;14.20;71.70;;;;;;5033705;28;20033;-78
2022/04/12 07:56:00;;;;;;;5.18;4.57;;;14.60;69.30;;;;;;5028395;28;20056;-77
2022/04/12 07:58:26;;;;;;;6.88;5.03;;;15.40;67.40;;;;;;5029163;28;20037;-78
2022/04/12 08:00:52;;;;;;;6.95;4.45;;;15.80;63.60;;;;;;5025158;28;20391;-78
2022/04/12 08:03:20;;;;;;;7.68;4.70;;;16.40;63.30;;;;;;5029144;28;20052;-78
2022/04/12 08:05:51;;;;;;;10.55;4.22;;;16.70;60.20;;;;;;5037902;28;20038;-82
2022/04/12 08:08:18;;;;;;;6.88;5.10;;;16.90;59.60;;;;;;5033330;28;20038;-80
2022/04/12 08:10:44;;;;;;;7.97;4.32;;;17.60;58.40;;;;;;5015468;28;20474;-78
2022/04/12 08:13:10;;;;;;;6.35;4.30;;;18.10;56.50;;;;;;5027687;28;20455;-79
2022/04/12 08:15:37;;;;;;;6.88;4.32;;;17.80;56.10;;;;;;5027922;28;20041;-76
2022/04/12 08:18:04;;;;;;;4.50;3.88;;;16.60;57.50;;;;;;5032080;28;20064;-86
2022/04/12 08:20:31;;;;;;;6.88;4.55;;;15.60;59.70;;;;;;5037694;28;20037;-79
2022/04/12 08:22:58;;;;;;;5.85;5.07;;;16.30;58.70;;;;;;5031847;28;20030;-79
2022/04/12 08:25:25;;;;;;;5.32;4.65;;;17.40;57.40;;;;;;5030609;28;20040;-79
2022/04/12 08:27:51;;;;;;;4.82;4.10;;;16.40;57.10;;;;;;5028676;28;20406;-78
2022/04/12 08:30:18;;;;;;;4.85;4.32;;;16.40;57.60;;;;;;5031795;28;20041;-78
2022/04/12 08:32:44;;;;;;;3.97;3.58;;;16.50;57.60;;;;;;5033794;28;20039;-79
2022/04/12 08:35:11;;;;;;;5.72;4.68;;;16.90;57.50;;;;;;5031234;28;20037;-76
2022/04/12 08:37:37;;;;;;;4.65;4.25;;;17.40;55.30;;;;;;5031148;28;20390;-76
2022/04/12 08:40:04;;;;;;;4.88;3.92;;;18.30;55.60;;;;;;5034028;28;20037;-76
2022/04/12 08:42:30;;;;;;;5.72;4.05;;;18.60;53.50;;;;;;5033005;28;20048;-76
2022/04/12 08:44:58;;;;;;;4.80;4.32;;;18.70;54.60;;;;;;5035408;28;20052;-76
2022/04/12 08:47:25;;;;;;;6.13;4.32;;;19.10;51.30;;;;;;5033752;28;20052;-77
2022/04/12 08:49:51;;;;;;;6.20;4.57;;;18.90;52.60;;;;;;5019921;28;20045;-77
2022/04/12 08:52:17;;;;;;;7.07;5.10;;;19.50;50.00;;;;;;5032762;28;20033;-75
2022/04/12 08:54:44;;;;;;;6.07;4.68;;;19.40;49.50;;;;;;5036783;28;20036;-75
2022/04/12 08:57:12;;;;;;;5.55;5.00;;;17.90;51.60;;;;;;5033601;28;20029;-78
2022/04/12 08:59:40;;;;;;;5.72;4.20;;;17.20;52.50;;;;;;5031124;28;20037;-77
2022/04/12 09:02:08;;;;;;;6.70;4.60;;;16.60;53.80;;;;;;5039280;28;20041;-79
2022/04/12 09:04:36;;;;;;;4.00;3.60;;;16.80;52.80;;;;;;5035684;28;20462;-78
2022/04/12 09:07:08;;;;;;;5.90;4.13;;;17.90;50.90;;;;;;5032005;28;20376;-79
2022/04/12 09:09:34;;;;;;;10.63;4.07;;;19.00;50.50;;;;;;5031855;28;20808;-79
2022/04/12 09:12:02;;;;;;;4.78;3.58;;;19.00;50.00;;;;;;5035401;28;20041;-79
2022/04/12 09:14:39;;;;;;;6.15;3.83;;;19.50;49.70;;;;;;5034537;28;20040;-79
2022/04/12 09:17:08;;;;;;;8.40;4.82;;;19.90;48.80;;;;;;5015965;28;20036;-88
2022/04/12 09:19:45;;;;;;;5.60;4.10;;;19.60;48.60;;;;;;5028309;28;20052;-79
2022/04/12 09:22:12;;;;;;;7.03;4.32;;;20.00;47.70;;;;;;5038451;28;20034;-79
2022/04/12 09:24:52;;;;;;;4.88;4.10;;;19.80;48.30;;;;;;5017116;28;20044;-79
2022/04/12 09:27:22;;;;;;;5.75;4.53;;;18.90;48.40;;;;;;5033942;28;20390;-79
2022/04/12 09:29:51;;;;;;;8.52;3.72;;;18.20;50.30;;;;;;5034281;28;20038;-80
2022/04/12 09:32:34;;;;;;;4.95;3.00;;;17.90;51.00;;;;;;5031886;28;20025;-81
2022/04/12 09:35:01;;;;;;;4.35;3.55;;;19.10;50.80;;;;;;5032041;28;20029;-78
2022/04/12 09:37:32;;;;;;;3.85;3.40;;;20.30;48.60;;;;;;5029390;28;20105;-78
2022/04/12 09:40:02;;;;;;;5.78;3.70;;;20.50;47.20;;;;;;5016683;28;20052;-78
2022/04/12 09:42:50;;;;;;;4.25;3.38;;;19.90;48.40;;;;;;5032102;28;20466;-81
2022/04/12 09:45:25;;;;;;;4.25;3.60;;;20.60;48.50;;;;;;5033348;28;20030;-80
2022/04/12 09:47:53;;;;;;;5.25;3.75;;;20.30;49.90;;;;;;5034860;28;20034;-79
2022/04/12 09:50:21;;;;;;;6.25;3.63;;;22.10;46.20;;;;;;5036962;28;20048;-76
2022/04/12 09:53:02;;;;;;;4.50;3.50;;;22.70;45.70;;;;;;5032910;28;20457;-76
2022/04/12 09:55:40;;;;;;;4.32;3.65;;;22.70;44.80;;;;;;5021699;28;20053;-75
2022/04/12 09:58:15;;;;;;;3.88;3.47;;;22.30;45.10;;;;;;5039757;28;20505;-77
2022/04/12 10:00:43;;;;;;;5.32;3.47;;;21.50;45.00;;;;;;5040591;28;20044;-76
2022/04/12 10:03:13;;;;;;;4.78;3.45;;;20.40;47.40;;;;;;5040224;28;20481;-75
2022/04/12 10:05:39;;;;;;;5.47;3.40;;;20.40;46.70;;;;;;5032268;28;20475;-75
2022/04/12 10:08:10;;;;;;;8.07;3.08;;;20.50;48.00;;;;;;5027594;28;20033;-86
2022/04/12 10:10:36;;;;;;;5.22;3.55;;;21.00;45.50;;;;;;5028737;28;20474;-79
2022/04/12 10:13:02;;;;;;;6.63;3.70;;;20.30;47.40;;;;;;5034076;28;20487;-78
2022/04/12 10:15:29;;;;;;;4.63;4.13;;;19.90;46.90;;;;;;5028256;28;20033;-78
2022/04/12 10:17:56;;;;;;;4.10;3.58;;;19.70;46.80;;;;;;5030547;28;20043;-78
2022/04/12 10:20:23;;;;;;;3.47;3.17;;;19.60;47.00;;;;;;5034175;28;20412;-78
2022/04/12 10:22:50;;;;;;;4.93;3.35;;;19.90;48.00;;;;;;5034752;28;20044;-78
2022/04/12 10:25:20;;;;;;;11.65;3.65;;;19.90;47.20;;;;;;5030141;28;20370;-77
2022/04/12 10:27:56;;;;;;;6.50;2.78;;;19.70;47.20;;;;;;5022685;28;20057;-79
2022/04/12 10:30:27;;;;;;;3.42;3.13;;;19.50;47.50;;;;;;5030051;28;20045;-78
2022/04/12 10:33:07;;;;;;;6.53;3.58;;;19.50;47.10;;;;;;5035617;28;20029;-77
2022/04/12 10:35:42;;;;;;;7.18;3.58;;;19.50;47.20;;;;;;5027417;28;20037;-79
2022/04/12 10:38:13;;;;;;;3.28;2.28;;;19.40;46.90;;;;;;5015394;28;20037;-78
2022/04/12 10:40:48;;;;;;;3.35;2.08;;;18.90;47.30;;;;;;5034058;28;20037;-77
2022/04/12 10:43:20;;;;;;;5.75;2.75;;;19.00;47.60;;;;;;5033258;28;20029;-78
2022/04/12 10:45:48;;;;;;;3.33;2.28;;;19.50;47.20;;;;;;5032077;28;20045;-77
2022/04/12 10:48:27;;;;;;;5.20;2.45;;;19.70;47.10;;;;;;5032999;28;20040;-78
2022/04/12 10:50:56;;;;;;;6.53;2.80;;;19.60;46.90;;;;;;5028802;28;20041;-78
2022/04/12 10:53:37;;;;;;;4.43;2.50;;;19.60;46.50;;;;;;5026483;28;20471;-78
2022/04/12 10:56:05;;;;;;;3.83;2.50;;;19.40;47.40;;;;;;5021990;28;20383;-78
2022/04/12 10:58:33;;;;;;;3.38;2.42;;;19.80;47.70;;;;;;5031257;28;20034;-78
2022/04/12 11:01:00;;;;;;;3.80;2.28;;;20.30;46.70;;;;;;5033855;28;20068;-78
2022/04/12 11:03:52;;;;;;;4.35;2.60;;;20.30;45.80;;;;;;5028514;28;20387;-78
2022/04/12 11:06:26;;;;;;;7.10;3.15;;;20.20;46.30;;;;;;5033100;28;20021;-78
2022/04/12 11:09:17;;;;;;;5.43;2.47;;;20.10;47.60;;;;;;5032055;28;20036;-79
2022/04/12 11:11:51;;;;;;;6.65;2.05;;;20.00;46.30;;;;;;5029676;28;20040;-77
2022/04/12 11:14:32;;;;;;;4.43;2.78;;;20.30;46.80;;;;;;5014763;28;20033;-75
2022/04/12 11:17:07;;;;;;;4.18;2.53;;;20.70;46.50;;;;;;5032570;28;20382;-76
2022/04/12 11:19:49;;;;;;;5.03;2.58;;;20.50;46.00;;;;;;5029873;28;20029;-82
2022/04/12 11:22:17;;;;;;;2.88;1.73;;;20.50;45.40;;;;;;5033194;28;20033;-78
2022/04/12 11:25:03;;;;;;;3.25;2.13;;;21.00;46.40;;;;;;5033598;28;20387;-82
2022/04/12 11:27:30;;;;;;;3.10;1.70;;;21.30;44.50;;;;;;5031142;28;20053;-78
2022/04/12 11:29:57;;;;;;;2.63;1.73;;;21.30;45.30;;;;;;5012074;28;20041;-77
2022/04/12 11:32:25;;;;;;;3.30;2.10;;;21.60;44.80;;;;;;5031756;28;20048;-81
2022/04/12 11:34:52;;;;;;;7.05;2.13;;;21.90;44.80;;;;;;5028218;28;20033;-79
2022/04/12 11:37:18;;;;;;;5.88;1.50;;;22.10;44.30;;;;;;5030823;28;20032;-79
2022/04/12 11:39:45;;;;;;;2.95;1.40;;;22.10;44.50;;;;;;5015380;28;20041;-79
2022/04/12 11:42:15;;;;;;;1.77;1.33;;;22.20;43.30;;;;;;5027355;28;20038;-76
2022/04/12 11:44:51;;;;;;;2.65;1.25;;;22.10;44.30;;;;;;5021401;28;20033;-79
2022/04/12 11:47:18;;;;;;;3.83;1.17;;;22.20;43.90;;;;;;5023107;28;20029;-78
2022/04/12 11:49:44;;;;;;;1.40;1.10;;;22.60;43.50;;;;;;5031055;28;20034;-80
2022/04/12 11:52:12;;;;;;;2.50;1.08;;;22.90;42.90;;;;;;5027661;28;20041;-78
2022/04/12 11:54:40;;;;;;;1.92;1.00;;;22.60;44.00;;;;;;5029469;28;20313;-79
2022/04/12 11:57:13;;;;;;;0.75;0.65;;;22.40;42.90;;;;;;5006991;28;20052;-87
2022/04/12 11:59:45;;;;;;;2.50;0.77;;;22.60;43.40;;;;;;5028465;28;20033;-79
2022/04/12 12:02:13;;;;;;;1.48;0.80;;;22.80;42.80;;;;;;5032835;28;20021;-78
2022/04/12 12:04:50;;;;;;;1.63;0.98;;;22.90;42.70;;;;;;5034754;28;20034;-82
2022/04/12 12:07:17;;;;;;;5.28;0.70;;;22.40;43.40;;;;;;5034005;28;20036;-79
2022/04/12 12:09:58;;;;;;;1.73;0.73;;;22.40;43.60;;;;;;5032462;28;20033;-79
2022/04/12 12:12:32;;;;;;;4.55;0.98;;;22.60;43.90;;;;;;5031304;28;20046;-79
2022/04/12 12:15:11;;;;;;;4.35;3.70;;;22.90;43.10;;;;;;5031612;28;20037;-81
2022/04/12 12:17:39;;;;;;;1.45;0.90;;;22.90;42.80;;;;;;5032599;28;20491;-80
2022/04/12 12:20:07;;;;;;;1.38;1.02;;;22.90;42.10;;;;;;5032121;28;20041;-79
2022/04/12 12:22:38;;;;;;;1.77;0.75;;;22.80;42.00;;;;;;5028962;28;20037;-80
2022/04/12 12:25:05;;;;;;;1.23;1.00;;;22.80;42.80;;;;;;5030149;28;20518;-82
2022/04/12 12:27:34;;;;;;;1.92;0.85;;;23.10;42.40;;;;;;5014160;28;20060;-79
2022/04/12 12:30:09;;;;;;;0.70;0.70;;;23.20;41.40;;;;;;5031675;28;20034;-83
2022/04/12 12:32:40;;;;;;;1.10;0.50;;;23.20;41.20;;;;;;5023460;28;20033;-79
2022/04/12 12:35:11;;;;;;;0.63;0.47;;;23.30;41.60;;;;;;5017490;28;20034;-78
2022/04/12 12:37:39;;;;;;;1.48;0.98;;;23.20;41.20;;;;;;5028369;28;20383;-79
2022/04/12 12:40:26;;;;;;;1.80;0.60;;;23.30;40.80;;;;;;5028218;28;20042;-80
2022/04/12 12:42:53;;;;;;;1.20;0.88;;;23.70;42.00;;;;;;5031599;28;20026;-76
2022/04/12 12:45:22;;;;;;;1.50;0.70;;;24.00;41.30;;;;;;5029783;28;20052;-78
2022/04/12 12:47:58;;;;;;;2.90;0.77;;;23.60;41.10;;;;;;5019844;28;20044;-78
2022/04/12 12:50:26;;;;;;;0.80;0.75;;;23.80;40.80;;;;;;5028385;28;20034;-77
2022/04/12 12:53:00;;;;;;;1.25;1.00;;;23.90;40.20;;;;;;5031375;28;20033;-78
2022/04/12 12:55:33;;;;;;;2.10;1.35;;;24.10;41.00;;;;;;5025169;28;20207;-78
2022/04/12 12:58:08;;;;;;;5.03;0.75;;;24.30;41.00;;;;;;5028150;28;20032;-79